createdAt,value
2023-07-20T00:00:01.718Z,7.8
2023-07-20T00:01:03.223Z,7.8
2023-07-20T00:02:05.071Z,7.8
2023-07-20T00:03:06.905Z,7.8
2023-07-20T00:04:08.779Z,7.8
2023-07-20T00:05:10.414Z,7.8
2023-07-20T00:06:12.038Z,7.8
2023-07-20T00:07:13.695Z,7.8
2023-07-20T00:08:15.146Z,7.8
2023-07-20T00:09:16.639Z,7.8
2023-07-20T00:10:18.069Z,7.8
2023-07-20T00:11:19.595Z,7.8
2023-07-20T00:12:21.181Z,7.8
2023-07-20T00:13:22.802Z,7.8
2023-07-20T00:14:24.429Z,7.8
2023-07-20T00:15:25.983Z,7.8
2023-07-20T00:16:28.768Z,7.8
2023-07-20T00:17:30.527Z,7.8
2023-07-20T00:18:32.025Z,7.8
2023-07-20T00:19:33.397Z,7.8
2023-07-20T00:20:35.030Z,7.8
2023-07-20T00:21:36.314Z,7.8
2023-07-20T00:22:38.143Z,7.8
2023-07-20T00:23:39.723Z,7.8
2023-07-20T00:24:41.269Z,7.8
2023-07-20T00:25:42.605Z,7.8
2023-07-20T00:26:44.306Z,7.8
2023-07-20T00:27:46.286Z,7.8
2023-07-20T00:28:48.079Z,7.8
2023-07-20T00:29:49.725Z,7.8
2023-07-20T00:30:51.794Z,7.8
2023-07-20T00:31:53.654Z,7.8
2023-07-20T00:32:55.559Z,7.8
2023-07-20T00:33:57.012Z,7.8
2023-07-20T00:34:58.540Z,7.8
2023-07-20T00:35:59.939Z,7.8
2023-07-20T00:37:01.298Z,7.8
2023-07-20T00:38:02.993Z,7.8
2023-07-20T00:39:04.440Z,7.8
2023-07-20T00:40:05.873Z,7.8
2023-07-20T00:41:07.399Z,7.8
2023-07-20T00:42:08.940Z,7.8
2023-07-20T00:43:12.069Z,7.8
2023-07-20T00:44:14.249Z,7.8
2023-07-20T00:45:15.765Z,7.8
2023-07-20T00:46:17.685Z,7.8
2023-07-20T00:47:19.243Z,7.8
2023-07-20T00:48:20.722Z,7.8
2023-07-20T00:49:22.359Z,7.8
2023-07-20T00:50:23.855Z,7.8
2023-07-20T00:51:25.504Z,7.8
2023-07-20T00:52:26.973Z,7.8
2023-07-20T00:53:28.427Z,7.8
2023-07-20T00:54:29.993Z,7.8
2023-07-20T00:55:31.391Z,7.8
2023-07-20T00:56:32.923Z,7.8
2023-07-20T00:57:35.539Z,7.8
2023-07-20T00:58:37.062Z,7.8
2023-07-20T00:59:38.616Z,7.8
2023-07-20T01:00:40.056Z,7.8
2023-07-20T01:01:41.877Z,7.8
2023-07-20T01:02:43.856Z,7.8
2023-07-20T01:03:45.830Z,7.8
2023-07-20T01:04:47.435Z,7.8
2023-07-20T01:05:48.693Z,7.8
2023-07-20T01:06:49.997Z,7.8
2023-07-20T01:07:51.440Z,7.8
2023-07-20T01:08:53.025Z,7.8
2023-07-20T01:09:54.560Z,7.8
2023-07-20T01:10:56.124Z,7.8
2023-07-20T01:11:57.541Z,7.8
2023-07-20T01:12:58.932Z,7.8
2023-07-20T01:14:00.512Z,7.8
2023-07-20T01:15:01.945Z,7.8
2023-07-20T01:16:03.952Z,7.8
2023-07-20T01:17:05.550Z,7.8
2023-07-20T01:18:07.589Z,7.8
2023-07-20T01:19:09.207Z,7.8
2023-07-20T01:20:10.797Z,7.8
2023-07-20T01:21:12.405Z,7.8
2023-07-20T01:22:13.976Z,7.9
2023-07-20T01:23:16.202Z,7.9
2023-07-20T01:24:17.915Z,7.9
2023-07-20T01:25:19.489Z,7.9
2023-07-20T01:26:22.703Z,7.9
2023-07-20T01:27:24.389Z,7.9
2023-07-20T01:28:25.930Z,7.9
2023-07-20T01:29:27.226Z,7.9
2023-07-20T01:30:28.799Z,7.8
2023-07-20T01:31:30.646Z,7.8
2023-07-20T01:32:32.304Z,7.8
2023-07-20T01:33:33.962Z,7.8
2023-07-20T01:34:35.451Z,7.8
2023-07-20T01:35:36.906Z,7.8
2023-07-20T01:36:38.341Z,7.8
2023-07-20T01:37:39.777Z,7.8
2023-07-20T01:38:41.158Z,7.8
2023-07-20T01:39:42.799Z,7.8
2023-07-20T01:40:44.234Z,7.8
2023-07-20T01:41:45.776Z,7.8
2023-07-20T01:42:47.159Z,7.8
2023-07-20T01:43:48.452Z,7.8
2023-07-20T01:44:49.963Z,7.8
2023-07-20T01:45:51.564Z,7.8
2023-07-20T01:46:53.000Z,7.8
2023-07-20T01:47:54.835Z,7.8
2023-07-20T01:48:56.928Z,7.8
2023-07-20T01:49:58.386Z,7.8
2023-07-20T01:50:59.926Z,7.8
2023-07-20T01:52:01.362Z,7.8
2023-07-20T01:53:02.972Z,7.8
2023-07-20T01:54:04.554Z,7.8
2023-07-20T01:55:06.333Z,7.8
2023-07-20T01:56:08.023Z,7.8
2023-07-20T01:57:09.616Z,7.8
2023-07-20T01:58:11.040Z,7.8
2023-07-20T01:59:12.614Z,7.8
2023-07-20T02:00:14.092Z,7.8
2023-07-20T02:01:16.045Z,7.8
2023-07-20T02:02:17.463Z,7.8
2023-07-20T02:03:19.136Z,7.8
2023-07-20T02:04:20.616Z,7.8
2023-07-20T02:05:22.789Z,7.8
2023-07-20T02:06:26.454Z,7.8
2023-07-20T02:07:27.866Z,7.8
2023-07-20T02:08:29.438Z,7.8
2023-07-20T02:09:30.990Z,7.8
2023-07-20T02:10:32.654Z,7.8
2023-07-20T02:11:34.175Z,7.8
2023-07-20T02:12:35.593Z,7.8
2023-07-20T02:13:37.138Z,7.8
2023-07-20T02:14:38.735Z,7.8
2023-07-20T02:15:40.271Z,7.8
2023-07-20T02:16:42.133Z,7.8
2023-07-20T02:17:44.034Z,7.8
2023-07-20T02:18:45.655Z,7.8
2023-07-20T02:19:47.205Z,7.8
2023-07-20T02:20:48.782Z,7.8
2023-07-20T02:21:50.235Z,7.8
2023-07-20T02:22:52.119Z,7.8
2023-07-20T02:23:53.714Z,7.8
2023-07-20T02:24:55.289Z,7.7
2023-07-20T02:25:56.846Z,7.7
2023-07-20T02:26:58.397Z,7.7
2023-07-20T02:27:59.826Z,7.6
2023-07-20T02:29:01.280Z,7.5
2023-07-20T02:30:02.740Z,7.5
2023-07-20T02:31:04.368Z,7.4
2023-07-20T02:32:06.003Z,7.2
2023-07-20T02:33:07.894Z,7.2
2023-07-20T02:34:09.472Z,7.2
2023-07-20T02:35:11.040Z,7.2
2023-07-20T02:36:12.505Z,7.2
2023-07-20T02:37:14.221Z,7.2
2023-07-20T02:38:15.899Z,7.2
2023-07-20T02:39:17.403Z,7.2
2023-07-20T02:40:18.971Z,7.2
2023-07-20T02:41:20.575Z,7.2
2023-07-20T02:42:22.193Z,7.2
2023-07-20T02:43:23.799Z,7.2
2023-07-20T02:44:25.076Z,7.2
2023-07-20T02:45:26.607Z,7.2
2023-07-20T02:46:28.275Z,7.2
2023-07-20T02:47:30.081Z,7.2
2023-07-20T02:48:31.508Z,7.2
2023-07-20T02:49:32.983Z,7.2
2023-07-20T02:50:34.396Z,7.2
2023-07-20T02:51:35.882Z,7.2
2023-07-20T02:52:37.436Z,7.2
2023-07-20T02:53:38.980Z,7.2
2023-07-20T02:54:40.577Z,7.2
2023-07-20T02:55:42.184Z,7.2
2023-07-20T02:56:43.822Z,7.2
2023-07-20T02:57:45.102Z,7.2
2023-07-20T02:58:46.635Z,7.2
2023-07-20T02:59:48.296Z,7.2
2023-07-20T03:00:50.075Z,7.2
2023-07-20T03:01:51.605Z,7.2
2023-07-20T03:02:53.453Z,7.2
2023-07-20T03:03:55.254Z,7.2
2023-07-20T03:04:56.895Z,7.2
2023-07-20T03:05:58.580Z,7.2
2023-07-20T03:07:00.104Z,7.2
2023-07-20T03:08:01.655Z,7.2
2023-07-20T03:09:03.214Z,7.2
2023-07-20T03:10:04.895Z,7.2
2023-07-20T03:11:06.332Z,7.2
2023-07-20T03:12:07.917Z,7.3
2023-07-20T03:13:09.532Z,7.3
2023-07-20T03:14:11.083Z,7.3
2023-07-20T03:15:12.599Z,7.3
2023-07-20T03:16:14.105Z,7.3
2023-07-20T03:17:16.107Z,7.3
2023-07-20T03:18:17.714Z,7.3
2023-07-20T03:19:19.267Z,7.3
2023-07-20T03:20:20.863Z,7.3
2023-07-20T03:21:22.261Z,7.3
2023-07-20T03:22:23.852Z,7.3
2023-07-20T03:23:25.435Z,7.3
2023-07-20T03:24:26.886Z,7.3
2023-07-20T03:25:30.444Z,7.3
2023-07-20T03:26:32.575Z,7.3
2023-07-20T03:27:34.142Z,7.3
2023-07-20T03:28:35.641Z,7.3
2023-07-20T03:29:37.204Z,7.4
2023-07-20T03:30:39.000Z,7.4
2023-07-20T03:31:40.549Z,7.4
2023-07-20T03:32:42.428Z,7.4
2023-07-20T03:33:44.662Z,7.4
2023-07-20T03:34:45.956Z,7.4
2023-07-20T03:35:47.463Z,7.5
2023-07-20T03:36:49.027Z,7.5
2023-07-20T03:37:50.608Z,7.5
2023-07-20T03:38:51.848Z,7.5
2023-07-20T03:39:53.402Z,7.5
2023-07-20T03:40:54.972Z,7.6
2023-07-20T03:41:56.403Z,7.6
2023-07-20T03:42:57.998Z,7.6
2023-07-20T03:43:59.502Z,7.6
2023-07-20T03:45:00.903Z,7.6
2023-07-20T03:46:02.443Z,7.7
2023-07-20T03:47:04.188Z,7.7
2023-07-20T03:48:06.039Z,7.7
2023-07-20T03:49:07.598Z,7.7
2023-07-20T03:50:09.022Z,7.7
2023-07-20T03:51:10.459Z,7.7
2023-07-20T03:52:12.047Z,7.7
2023-07-20T03:53:13.509Z,7.8
2023-07-20T03:54:15.043Z,7.8
2023-07-20T03:55:16.394Z,7.8
2023-07-20T03:56:17.812Z,7.9
2023-07-20T03:57:19.498Z,7.9
2023-07-20T03:58:21.141Z,7.9
2023-07-20T03:59:22.693Z,7.9
2023-07-20T04:00:24.341Z,7.8
2023-07-20T04:01:26.077Z,7.8
2023-07-20T04:02:27.792Z,7.8
2023-07-20T04:03:30.210Z,7.8
2023-07-20T04:04:31.809Z,7.8
2023-07-20T04:05:33.342Z,7.8
2023-07-20T04:06:34.921Z,7.7
2023-07-20T04:07:36.356Z,7.7
2023-07-20T04:08:37.919Z,7.7
2023-07-20T04:09:39.499Z,7.6
2023-07-20T04:10:41.001Z,7.5
2023-07-20T04:11:42.627Z,7.5
2023-07-20T04:12:44.064Z,7.4
2023-07-20T04:13:45.705Z,7.3
2023-07-20T04:14:47.268Z,7.2
2023-07-20T04:15:48.977Z,7.2
2023-07-20T04:16:50.689Z,7.2
2023-07-20T04:17:52.557Z,7.2
2023-07-20T04:18:54.310Z,7.2
2023-07-20T04:19:55.806Z,7.2
2023-07-20T04:20:57.330Z,7.2
2023-07-20T04:21:58.875Z,7.2
2023-07-20T04:23:00.650Z,7.2
2023-07-20T04:24:02.316Z,7.2
2023-07-20T04:25:03.871Z,7.2
2023-07-20T04:26:05.332Z,7.2
2023-07-20T04:27:06.797Z,7.2
2023-07-20T04:28:12.507Z,7.2
2023-07-20T04:29:14.055Z,7.2
2023-07-20T04:30:15.646Z,7.2
2023-07-20T04:31:18.058Z,7.2
2023-07-20T04:32:19.642Z,7.2
2023-07-20T04:33:21.208Z,7.2
2023-07-20T04:34:22.724Z,7.2
2023-07-20T04:35:24.099Z,7.2
2023-07-20T04:36:26.956Z,7.2
2023-07-20T04:37:28.445Z,7.2
2023-07-20T04:38:30.011Z,7.2
2023-07-20T04:39:33.772Z,7.2
2023-07-20T04:40:35.341Z,7.2
2023-07-20T04:41:36.801Z,7.2
2023-07-20T04:42:38.413Z,7.2
2023-07-20T04:43:39.832Z,7.2
2023-07-20T04:44:41.335Z,7.2
2023-07-20T04:45:42.791Z,7.2
2023-07-20T04:46:48.601Z,7.2
2023-07-20T04:47:50.591Z,7.3
2023-07-20T04:48:52.467Z,7.3
2023-07-20T04:49:53.841Z,7.3
2023-07-20T04:50:55.779Z,7.3
2023-07-20T04:51:57.370Z,7.3
2023-07-20T04:52:58.823Z,7.4
2023-07-20T04:54:00.427Z,7.4
2023-07-20T04:55:02.044Z,7.4
2023-07-20T04:56:03.570Z,7.4
2023-07-20T04:57:05.121Z,7.4
2023-07-20T04:58:06.606Z,7.4
2023-07-20T04:59:08.157Z,7.5
2023-07-20T05:00:09.827Z,7.5
2023-07-20T05:01:11.658Z,7.5
2023-07-20T05:02:13.223Z,7.5
2023-07-20T05:03:15.374Z,7.5
2023-07-20T05:04:23.280Z,7.5
2023-07-20T05:05:24.890Z,7.5
2023-07-20T05:06:27.121Z,7.5
2023-07-20T05:07:28.696Z,7.5
2023-07-20T05:08:30.345Z,7.6
2023-07-20T05:09:31.911Z,7.6
2023-07-20T05:10:33.460Z,7.6
2023-07-20T05:11:34.946Z,7.6
2023-07-20T05:12:37.479Z,7.6
2023-07-20T05:13:39.057Z,7.6
2023-07-20T05:14:40.656Z,7.7
2023-07-20T05:15:42.150Z,7.7
2023-07-20T05:16:43.596Z,7.7
2023-07-20T05:17:45.377Z,7.8
2023-07-20T05:18:46.812Z,7.8
2023-07-20T05:19:48.435Z,7.8
2023-07-20T05:20:49.999Z,7.8
2023-07-20T05:21:51.615Z,7.8
2023-07-20T05:22:53.173Z,7.8
2023-07-20T05:23:54.810Z,7.8
2023-07-20T05:24:56.316Z,7.8
2023-07-20T05:25:58.160Z,7.8
2023-07-20T05:26:59.305Z,7.8
2023-07-20T05:28:00.999Z,7.8
2023-07-20T05:29:02.656Z,7.8
2023-07-20T05:30:04.220Z,7.8
2023-07-20T05:31:05.909Z,7.8
2023-07-20T05:32:07.067Z,7.8
2023-07-20T05:33:08.894Z,7.8
2023-07-20T05:34:10.468Z,7.8
2023-07-20T05:35:11.783Z,7.8
2023-07-20T05:36:13.319Z,7.8
2023-07-20T05:37:16.659Z,7.8
2023-07-20T05:38:18.079Z,7.8
2023-07-20T05:39:19.658Z,7.8
2023-07-20T05:40:21.792Z,7.8
2023-07-20T05:41:23.338Z,7.8
2023-07-20T05:42:24.646Z,7.8
2023-07-20T05:43:26.044Z,7.8
2023-07-20T05:44:27.613Z,7.8
2023-07-20T05:45:28.899Z,7.8
2023-07-20T05:50:04.019Z,7.8
2023-07-20T05:51:05.566Z,7.8
2023-07-20T05:52:07.038Z,7.8
2023-07-20T05:53:08.447Z,7.8
2023-07-20T05:54:09.995Z,7.8
2023-07-20T05:55:11.712Z,7.8
2023-07-20T05:56:13.106Z,7.8
2023-07-20T05:57:14.562Z,7.8
2023-07-20T05:58:16.103Z,7.8
2023-07-20T05:59:17.648Z,7.8
2023-07-20T06:00:19.191Z,7.8
2023-07-20T06:01:21.144Z,7.8
2023-07-20T06:02:22.999Z,7.7
2023-07-20T06:03:25.034Z,7.7
2023-07-20T06:04:26.529Z,7.7
2023-07-20T06:06:32.658Z,7.7
2023-07-20T06:07:34.226Z,7.7
2023-07-20T06:08:35.796Z,7.8
2023-07-20T06:10:39.811Z,7.8
2023-07-20T06:11:41.422Z,7.8
2023-07-20T06:12:43.023Z,7.9
2023-07-20T06:13:44.455Z,7.9
2023-07-20T06:14:45.876Z,7.9
2023-07-20T06:15:47.874Z,7.9
2023-07-20T06:16:49.941Z,7.9
2023-07-20T06:17:51.606Z,7.9
2023-07-20T06:18:53.192Z,7.9
2023-07-20T06:19:54.727Z,7.9
2023-07-20T06:20:56.284Z,7.2
2023-07-20T06:21:57.809Z,7.3
2023-07-20T06:22:59.839Z,7.3
2023-07-20T06:24:01.416Z,7.3
2023-07-20T06:25:03.049Z,7.3
2023-07-20T06:26:04.722Z,7.3
2023-07-20T06:27:06.171Z,7.2
2023-07-20T06:28:07.763Z,7.2
2023-07-20T06:29:09.213Z,7.2
2023-07-20T06:30:10.652Z,7.2
2023-07-20T06:31:12.594Z,7.2
2023-07-20T06:32:14.601Z,7.2
2023-07-20T06:33:16.619Z,7.2
2023-07-20T07:39:35.157Z,7.8
2023-07-20T09:11:57.173Z,7.2
2023-07-20T09:14:00.454Z,7.2
2023-07-20T09:15:02.087Z,7.2
2023-07-20T09:16:03.542Z,7.2
2023-07-20T09:17:05.306Z,7.2
2023-07-20T09:18:07.419Z,7.2
2023-07-20T09:20:11.306Z,7.2
2023-07-20T09:21:12.738Z,7.2
2023-07-20T09:22:14.341Z,7.2
2023-07-20T09:23:15.845Z,7.2
2023-07-20T09:50:26.593Z,7.5
2023-07-20T10:52:22.906Z,7.9
2023-07-20T10:53:24.555Z,7.9
2023-07-20T10:54:25.977Z,7.9
2023-07-20T10:55:27.400Z,7.9
2023-07-20T10:56:28.960Z,7.9
2023-07-20T10:57:30.866Z,7.9
2023-07-20T10:58:32.826Z,7.8
2023-07-20T10:59:34.474Z,7.8
2023-07-20T11:00:35.898Z,7.8
2023-07-20T11:01:38.003Z,7.8
2023-07-20T11:02:39.694Z,7.8
2023-07-20T11:03:41.777Z,7.7
2023-07-20T11:04:43.980Z,7.7
2023-07-20T11:05:45.802Z,7.7
2023-07-20T11:06:47.336Z,7.6
2023-07-20T11:07:49.389Z,7.5
2023-07-20T11:16:07.233Z,7.2
2023-07-20T11:17:09.275Z,7.2
2023-07-20T11:18:11.113Z,7.2
2023-07-20T11:19:12.680Z,7.2
2023-07-20T11:31:42.350Z,7.2
2023-07-20T11:32:44.253Z,7.2
2023-07-20T11:33:45.812Z,7.2
2023-07-20T11:34:47.418Z,7.2
2023-07-20T11:35:49.527Z,7.2
2023-07-20T13:09:11.630Z,7.8
2023-07-20T13:10:13.692Z,7.8
2023-07-20T13:11:15.559Z,7.8
2023-07-20T13:12:17.082Z,7.7
2023-07-20T13:13:18.522Z,7.7
2023-07-20T13:14:20.133Z,7.7
2023-07-20T13:15:21.779Z,7.6
2023-07-20T13:16:23.918Z,7.6
2023-07-20T13:17:26.345Z,7.5
2023-07-20T13:18:28.128Z,7.4
2023-07-20T13:19:32.695Z,7.3
2023-07-20T13:20:34.485Z,7.2
2023-07-20T13:21:36.255Z,7.2
2023-07-20T13:22:37.805Z,7.2
2023-07-20T13:23:39.349Z,7.2
2023-07-20T13:25:43.781Z,7.2
2023-07-20T13:36:11.846Z,7.2
2023-07-20T13:43:26.075Z,7.2
2023-07-20T13:57:16.683Z,7.2
2023-07-20T13:58:18.167Z,7.2
2023-07-20T13:59:19.759Z,7.3
2023-07-20T14:06:30.199Z,7.4
2023-07-20T14:12:10.083Z,7.4
2023-07-20T14:50:36.884Z,7.8
2023-07-20T15:07:12.008Z,7.9
2023-07-20T15:08:13.935Z,7.9
2023-07-20T15:09:15.838Z,7.8
2023-07-20T15:10:17.696Z,7.9
2023-07-20T15:11:19.300Z,7.8
2023-07-20T15:12:20.737Z,7.8
2023-07-20T15:13:22.221Z,7.8
2023-07-20T15:14:23.817Z,7.8
2023-07-20T15:15:25.373Z,7.8
2023-07-20T15:39:21.036Z,7.2
2023-07-20T15:40:22.435Z,7.2
2023-07-20T15:56:05.912Z,7.2
2023-07-20T15:57:07.511Z,7.2
2023-07-20T15:58:09.134Z,7.2
2023-07-20T15:59:10.558Z,7.2
2023-07-20T16:00:12.469Z,7.2
2023-07-20T16:01:14.361Z,7.2
2023-07-20T16:02:16.100Z,7.2
2023-07-20T16:03:17.565Z,7.2
2023-07-20T16:04:19.714Z,7.2
2023-07-20T16:06:23.507Z,7.2
2023-07-20T16:07:25.421Z,7.2
2023-07-20T16:10:32.349Z,7.3
2023-07-20T16:30:28.216Z,7.7
2023-07-20T17:05:58.228Z,7.8
2023-07-20T17:06:59.672Z,7.8
2023-07-20T17:08:01.728Z,7.8
2023-07-20T17:09:03.427Z,7.8
2023-07-20T17:10:05.065Z,7.8
2023-07-20T17:11:06.479Z,7.8
2023-07-20T17:12:07.862Z,7.8
2023-07-20T17:37:19.729Z,7.8
2023-07-20T23:10:58.513Z,7.8
2023-07-20T23:11:59.965Z,7.8
2023-07-20T23:13:01.546Z,7.8
2023-07-20T23:14:03.100Z,7.8
2023-07-20T23:15:04.667Z,7.9
2023-07-20T23:16:06.498Z,7.9
2023-07-20T23:17:09.330Z,7.8
2023-07-20T23:18:11.084Z,7.9
2023-07-20T23:19:12.645Z,7.8
2023-07-20T23:20:14.243Z,7.8
2023-07-20T23:21:15.791Z,7.8
2023-07-20T23:22:17.367Z,7.8
2023-07-20T23:23:18.687Z,7.8
2023-07-20T23:24:20.535Z,7.8
2023-07-20T23:25:22.156Z,7.8
2023-07-20T23:28:28.913Z,7.8
2023-07-20T23:29:30.463Z,7.8
2023-07-20T23:30:31.944Z,7.8
2023-07-20T23:31:33.795Z,7.8
2023-07-20T23:33:37.299Z,7.8
2023-07-20T23:34:38.957Z,7.9
2023-07-20T23:35:40.504Z,7.9
2023-07-20T23:36:41.968Z,7.9
2023-07-20T23:37:43.597Z,7.9
2023-07-20T23:38:44.985Z,7.9
2023-07-20T23:39:46.514Z,7.8
2023-07-20T23:40:48.194Z,7.8
2023-07-20T23:41:49.859Z,7.8
2023-07-20T23:42:51.130Z,7.8
2023-07-20T23:43:52.534Z,7.8
2023-07-20T23:44:53.986Z,7.8
2023-07-20T23:45:55.741Z,7.8
2023-07-20T23:46:57.294Z,7.8
2023-07-20T23:47:59.012Z,7.8
2023-07-20T23:49:00.546Z,7.8
2023-07-20T23:50:02.088Z,7.8
2023-07-20T23:51:03.541Z,7.8
2023-07-20T23:52:05.014Z,7.8
2023-07-20T23:53:06.581Z,7.8
2023-07-20T23:54:08.168Z,7.8
2023-07-20T23:55:09.616Z,7.8
2023-07-20T23:56:11.860Z,7.8
2023-07-20T23:57:13.351Z,7.8
2023-07-20T23:58:14.865Z,7.8
2023-07-20T23:59:16.437Z,7.8
